createdAt,value
2023-01-28T00:01:29.648Z,35.25
2023-01-28T00:04:02.754Z,34.47
2023-01-28T00:06:49.612Z,31.85
2023-01-28T00:09:22.702Z,35.05
2023-01-28T00:12:09.623Z,31.42
2023-01-28T00:14:49.622Z,32.97
2023-01-28T00:17:46.642Z,32.20
2023-01-28T00:20:41.610Z,35.25
2023-01-28T00:23:35.609Z,32.33
2023-01-28T00:26:29.638Z,32.20
2023-01-28T00:29:23.623Z,34.40
2023-01-28T00:32:17.636Z,31.17
2023-01-28T00:35:04.618Z,32.35
2023-01-28T00:37:38.235Z,34.13
2023-01-28T00:40:24.625Z,33.22
2023-01-28T00:42:57.735Z,33.92
2023-01-28T00:45:45.653Z,32.17
2023-01-28T00:48:18.728Z,28.48
2023-01-28T00:51:05.629Z,35.15
2023-01-28T00:53:46.677Z,35.63
2023-01-28T00:56:33.640Z,36.95
2023-01-28T00:59:06.722Z,35.25
2023-01-28T01:01:53.722Z,30.88
2023-01-28T01:04:33.651Z,32.15
2023-01-28T01:07:20.632Z,35.35
2023-01-28T01:10:00.649Z,31.05
2023-01-28T01:12:54.635Z,29.10
2023-01-28T01:15:41.669Z,33.38
2023-01-28T01:18:14.726Z,35.30
2023-01-28T01:21:05.623Z,37.88
2023-01-28T01:23:45.651Z,33.53
2023-01-28T01:26:39.630Z,38.22
2023-01-28T01:29:26.659Z,37.15
2023-01-28T01:32:06.727Z,34.45
2023-01-28T01:35:00.663Z,43.70
2023-01-28T01:37:57.638Z,37.63
2023-01-28T01:40:51.623Z,36.50
2023-01-28T01:44:00.662Z,32.17
2023-01-28T01:46:51.764Z,39.10
2023-01-28T01:49:38.666Z,37.80
2023-01-28T01:52:24.644Z,32.90
2023-01-28T01:55:22.675Z,38.83
2023-01-28T01:58:21.658Z,37.08
2023-01-28T02:01:09.663Z,27.92
2023-01-28T02:04:12.808Z,37.97
2023-01-28T02:06:59.679Z,35.80
2023-01-28T02:09:38.755Z,38.13
2023-01-28T02:12:33.640Z,30.73
2023-01-28T02:15:11.787Z,34.10
2023-01-28T02:17:59.669Z,34.45
2023-01-28T02:20:59.676Z,43.03
2023-01-28T02:24:18.707Z,35.22
2023-01-28T02:27:33.676Z,39.67
2023-01-28T02:30:19.750Z,36.22
2023-01-28T02:33:15.641Z,36.75
2023-01-28T02:36:00.753Z,40.60
2023-01-28T02:38:55.652Z,34.97
2023-01-28T02:41:55.780Z,42.85
2023-01-28T02:44:42.662Z,37.22
2023-01-28T02:47:38.460Z,41.92
2023-01-28T02:50:25.670Z,35.67
2023-01-28T02:53:38.685Z,41.00
2023-01-28T02:56:42.666Z,37.03
2023-01-28T02:59:43.675Z,32.95
2023-01-28T03:02:36.729Z,36.42
2023-01-28T03:05:32.868Z,42.15
2023-01-28T03:08:38.681Z,39.70
2023-01-28T03:11:36.650Z,37.58
2023-01-28T03:14:43.675Z,35.70
2023-01-28T03:17:44.293Z,37.15
2023-01-28T03:21:00.681Z,38.67
2023-01-28T03:24:10.787Z,36.30
2023-01-28T03:27:15.710Z,40.15
2023-01-28T03:30:26.713Z,41.65
2023-01-28T03:33:26.727Z,35.22
2023-01-28T03:36:40.718Z,32.58
2023-01-28T03:39:42.713Z,30.25
2023-01-28T03:42:29.703Z,40.50
2023-01-28T03:45:05.496Z,35.97
2023-01-28T03:47:52.731Z,43.17
2023-01-28T03:50:32.723Z,38.80
2023-01-28T03:53:26.712Z,40.65
2023-01-28T03:56:13.726Z,42.13
2023-01-28T03:58:52.810Z,36.13
2023-01-28T04:01:39.741Z,39.92
2023-01-28T04:04:23.018Z,38.40
2023-01-28T04:07:09.701Z,44.10
2023-01-28T04:09:45.872Z,38.77
2023-01-28T04:12:50.794Z,40.83
2023-01-28T04:15:44.769Z,43.33
2023-01-28T04:18:38.722Z,40.72
2023-01-28T04:21:32.776Z,41.47
2023-01-28T04:24:26.765Z,45.50
2023-01-28T04:27:13.743Z,39.88
2023-01-28T04:29:46.788Z,41.60
2023-01-28T04:32:33.725Z,39.42
2023-01-28T04:35:06.784Z,38.17
2023-01-28T04:37:53.721Z,43.72
2023-01-28T04:40:26.802Z,36.13
2023-01-28T04:43:13.716Z,36.30
2023-01-28T04:45:53.711Z,34.13
2023-01-28T04:48:47.707Z,35.53
2023-01-28T04:51:34.725Z,33.08
2023-01-28T04:54:14.733Z,35.80
2023-01-28T04:57:02.798Z,45.53
2023-01-28T04:59:42.723Z,39.47
2023-01-28T05:02:36.719Z,40.28
2023-01-28T05:05:30.772Z,30.98
2023-01-28T05:08:24.724Z,35.47
2023-01-28T05:11:11.730Z,36.60
2023-01-28T05:13:44.808Z,41.80
2023-01-28T05:16:31.734Z,36.13
2023-01-28T05:19:04.814Z,37.13
2023-01-28T05:21:58.724Z,36.13
2023-01-28T05:24:54.801Z,34.88
2023-01-28T05:27:34.725Z,38.15
2023-01-28T05:30:15.122Z,39.20
2023-01-28T05:32:54.770Z,33.35
2023-01-28T05:35:36.437Z,37.03
2023-01-28T05:38:15.850Z,45.17
2023-01-28T05:40:55.791Z,36.22
2023-01-28T05:43:35.758Z,41.33
2023-01-28T05:46:15.835Z,33.50
2023-01-28T05:48:57.745Z,41.40
2023-01-28T05:51:39.379Z,33.65
2023-01-28T05:54:18.725Z,38.22
2023-01-28T05:57:00.797Z,38.50
2023-01-28T05:59:42.880Z,37.20
2023-01-28T06:02:29.777Z,39.83
2023-01-28T06:05:02.948Z,35.75
2023-01-28T06:07:53.720Z,29.80
2023-01-28T06:10:33.736Z,35.50
2023-01-28T06:13:27.727Z,35.20
2023-01-28T06:16:14.846Z,34.80
2023-01-28T06:18:48.853Z,36.70
2023-01-28T06:21:42.799Z,37.17
2023-01-28T06:24:39.043Z,31.73
2023-01-28T06:27:21.159Z,29.50
2023-01-28T06:30:00.774Z,40.72
2023-01-28T06:32:34.858Z,35.15
2023-01-28T06:35:21.765Z,33.67
2023-01-28T06:37:54.858Z,36.88
2023-01-28T06:40:41.801Z,40.20
2023-01-28T06:43:14.832Z,37.65
2023-01-28T06:46:01.759Z,36.50
2023-01-28T06:48:35.851Z,37.95
2023-01-28T06:51:24.800Z,33.85
2023-01-28T06:54:04.777Z,41.38
2023-01-28T06:56:58.790Z,37.08
2023-01-28T06:59:45.732Z,35.20
2023-01-28T07:02:18.884Z,38.95
2023-01-28T07:05:05.751Z,36.47
2023-01-28T07:07:46.776Z,38.55
2023-01-28T07:10:40.782Z,34.20
2023-01-28T07:13:30.785Z,34.80
2023-01-28T07:16:10.781Z,29.38
2023-01-28T07:18:57.735Z,29.73
2023-01-28T07:21:37.832Z,30.55
2023-01-28T07:24:24.836Z,48.45
2023-01-28T07:26:57.930Z,38.35
2023-01-28T07:29:44.787Z,36.40
2023-01-28T07:32:24.849Z,37.08
2023-01-28T07:35:11.761Z,35.25
2023-01-28T07:37:44.850Z,35.70
2023-01-28T07:40:32.831Z,33.25
2023-01-28T07:43:07.214Z,29.42
2023-01-28T07:45:53.757Z,32.72
2023-01-28T07:48:33.752Z,31.95
2023-01-28T07:51:27.767Z,34.85
2023-01-28T07:54:15.768Z,38.45
2023-01-28T07:56:48.934Z,28.77
2023-01-28T07:59:35.795Z,27.25
2023-01-28T08:02:08.922Z,30.75
2023-01-28T08:04:55.896Z,31.85
2023-01-28T08:07:28.873Z,32.65
2023-01-28T08:10:17.926Z,31.40
2023-01-28T08:13:04.897Z,31.30
2023-01-28T08:15:52.805Z,30.55
2023-01-28T08:18:25.892Z,30.08
2023-01-28T08:21:19.796Z,24.38
2023-01-28T08:24:13.796Z,33.70
2023-01-28T08:27:00.774Z,26.45
2023-01-28T08:29:40.771Z,31.75
2023-01-28T08:32:27.814Z,27.38
2023-01-28T08:35:00.922Z,30.13
2023-01-28T08:37:47.767Z,33.25
2023-01-28T08:40:20.881Z,28.38
2023-01-28T08:43:07.790Z,28.25
2023-01-28T08:45:41.479Z,27.00
2023-01-28T08:48:28.841Z,28.73
2023-01-28T08:51:12.827Z,28.35
2023-01-28T08:53:59.780Z,27.58
2023-01-28T08:56:39.765Z,31.13
2023-01-28T08:59:33.789Z,29.98
2023-01-28T09:02:31.740Z,30.00
2023-01-28T09:05:19.793Z,25.25
2023-01-28T09:07:59.786Z,30.60
2023-01-28T09:10:55.023Z,31.50
2023-01-28T09:13:48.779Z,32.67
2023-01-28T09:16:35.795Z,38.00
2023-01-28T09:19:08.886Z,31.15
2023-01-28T09:22:02.783Z,31.70
2023-01-28T09:24:49.807Z,34.33
2023-01-28T09:27:22.885Z,29.83
2023-01-28T09:30:09.811Z,32.28
2023-01-28T09:32:43.922Z,33.60
2023-01-28T09:35:30.799Z,30.17
2023-01-28T09:38:11.814Z,35.17
2023-01-28T09:40:58.788Z,28.10
2023-01-28T09:43:44.822Z,37.85
2023-01-28T09:46:48.839Z,32.72
2023-01-28T09:49:54.829Z,32.00
2023-01-28T09:52:36.805Z,29.88
2023-01-28T09:55:44.983Z,23.98
2023-01-28T09:58:31.864Z,34.38
2023-01-28T10:01:42.789Z,31.98
2023-01-28T10:05:11.804Z,30.52
2023-01-28T10:08:07.806Z,32.22
2023-01-28T10:11:00.812Z,33.95
2023-01-28T10:14:09.907Z,30.35
2023-01-28T10:17:32.966Z,27.08
2023-01-28T10:20:55.803Z,40.45
2023-01-28T10:24:08.902Z,36.83
2023-01-28T10:26:55.793Z,31.17
2023-01-28T10:29:41.826Z,30.30
2023-01-28T10:32:42.809Z,30.55
2023-01-28T10:35:30.844Z,28.48
2023-01-28T10:38:15.812Z,30.38
2023-01-28T10:41:14.804Z,25.45
2023-01-28T10:44:03.845Z,27.15
2023-01-28T10:46:41.914Z,30.02
2023-01-28T10:49:33.845Z,29.02
2023-01-28T10:52:18.609Z,25.00
2023-01-28T10:55:11.832Z,26.45
2023-01-28T10:57:49.137Z,25.88
2023-01-28T11:00:41.823Z,27.95
2023-01-28T11:03:27.363Z,29.45
2023-01-28T11:06:29.832Z,27.92
2023-01-28T11:09:02.928Z,27.63
2023-01-28T11:11:49.800Z,31.92
2023-01-28T11:14:30.971Z,27.33
2023-01-28T11:17:24.883Z,31.90
2023-01-28T11:20:03.447Z,30.83
2023-01-28T11:22:57.827Z,34.63
2023-01-28T11:25:44.833Z,32.50
2023-01-28T11:28:25.993Z,35.28
2023-01-28T11:31:12.857Z,30.40
2023-01-28T11:33:59.853Z,30.20
2023-01-28T11:36:57.840Z,30.92
2023-01-28T11:39:39.831Z,32.72
2023-01-28T11:42:28.860Z,30.40
2023-01-28T11:45:02.032Z,38.97
2023-01-28T11:47:59.849Z,35.03
2023-01-28T11:50:53.856Z,35.47
2023-01-28T11:54:08.903Z,29.20
2023-01-28T11:57:13.841Z,35.15
2023-01-28T12:00:31.863Z,27.92
2023-01-28T12:03:27.578Z,34.28
2023-01-28T12:06:35.744Z,31.80
2023-01-28T12:09:51.889Z,32.60
2023-01-28T12:12:57.841Z,30.60
2023-01-28T12:16:01.511Z,30.90
2023-01-28T12:19:02.849Z,30.70
2023-01-28T12:22:00.905Z,26.58
2023-01-28T12:25:25.846Z,37.22
2023-01-28T12:28:29.865Z,28.80
2023-01-28T12:31:26.932Z,32.22
2023-01-28T12:34:41.849Z,31.08
2023-01-28T12:38:00.856Z,28.08
2023-01-28T12:40:55.957Z,25.40
2023-01-28T12:43:45.872Z,29.58
2023-01-28T12:46:22.007Z,32.83
2023-01-28T12:49:27.868Z,32.75
2023-01-28T12:52:14.257Z,33.15
2023-01-28T12:55:07.911Z,35.95
2023-01-28T12:57:47.858Z,30.98
2023-01-28T13:00:50.859Z,36.45
2023-01-28T13:03:54.871Z,30.98
2023-01-28T13:07:00.993Z,36.97
2023-01-28T13:09:58.860Z,33.90
2023-01-28T13:12:33.503Z,41.35
2023-01-28T13:15:22.848Z,45.80
2023-01-28T13:18:01.995Z,40.97
2023-01-28T13:20:58.874Z,42.33
2023-01-28T13:23:33.054Z,45.38
2023-01-28T13:26:25.868Z,38.55
2023-01-28T13:29:00.962Z,35.83
2023-01-28T13:31:52.411Z,40.67
2023-01-28T13:34:43.890Z,35.65
2023-01-28T13:37:44.888Z,42.33
2023-01-28T13:40:34.875Z,41.95
2023-01-28T13:43:38.872Z,39.25
2023-01-28T13:46:44.894Z,39.67
2023-01-28T13:49:46.878Z,36.22
2023-01-28T13:53:00.894Z,41.60
2023-01-28T13:55:57.875Z,42.33
2023-01-28T13:59:21.923Z,36.97
2023-01-28T14:02:14.018Z,53.42
2023-01-28T14:05:12.962Z,38.78
2023-01-28T14:07:56.874Z,44.03
2023-01-28T14:11:06.899Z,42.53
2023-01-28T14:14:45.900Z,39.13
2023-01-28T14:17:52.900Z,41.33
2023-01-28T14:20:50.995Z,43.15
2023-01-28T14:23:44.895Z,35.47
2023-01-28T14:26:54.881Z,38.92
2023-01-28T14:29:41.921Z,48.75
2023-01-28T14:32:32.008Z,41.13
2023-01-28T14:35:25.881Z,39.25
2023-01-28T14:38:05.922Z,47.42
2023-01-28T14:40:55.888Z,46.85
2023-01-28T14:43:31.997Z,44.35
2023-01-28T14:47:09.905Z,44.15
2023-01-28T14:49:46.071Z,41.53
2023-01-28T14:52:50.894Z,40.28
2023-01-28T14:55:47.459Z,44.72
2023-01-28T14:58:34.912Z,44.33
2023-01-28T15:01:33.900Z,44.65
2023-01-28T15:04:43.945Z,37.80
2023-01-28T15:07:33.885Z,40.42
2023-01-28T15:10:11.009Z,38.60
2023-01-28T15:13:02.905Z,36.83
2023-01-28T15:15:40.030Z,43.00
2023-01-28T15:18:30.905Z,38.03
2023-01-28T15:21:06.072Z,39.08
2023-01-28T15:23:56.945Z,40.30
2023-01-28T15:26:33.002Z,38.58
2023-01-28T15:30:02.912Z,42.60
2023-01-28T15:32:37.998Z,38.70
2023-01-28T15:35:24.945Z,38.47
2023-01-28T15:37:58.039Z,37.30
2023-01-28T15:40:49.902Z,34.08
2023-01-28T15:43:33.052Z,36.50
2023-01-28T15:46:20.899Z,38.63
2023-01-28T15:49:11.155Z,36.10
2023-01-28T15:52:06.905Z,42.90
2023-01-28T15:55:05.975Z,45.15
2023-01-28T15:57:59.956Z,44.72
2023-01-28T16:00:46.969Z,44.45
2023-01-28T16:03:27.045Z,39.00
2023-01-28T16:06:22.921Z,45.42
2023-01-28T16:09:03.017Z,44.20
2023-01-28T16:11:51.931Z,44.58
2023-01-28T16:14:34.935Z,42.05
2023-01-28T16:17:35.959Z,45.90
2023-01-28T16:20:34.950Z,42.28
2023-01-28T16:23:10.041Z,35.38
2023-01-28T16:26:25.927Z,41.78
2023-01-28T16:29:05.931Z,35.28
2023-01-28T16:31:52.960Z,40.22
2023-01-28T16:34:35.951Z,41.97
2023-01-28T16:37:22.953Z,38.38
2023-01-28T16:39:57.425Z,38.15
2023-01-28T16:42:45.937Z,43.60
2023-01-28T16:45:31.033Z,38.35
2023-01-28T16:48:17.938Z,39.63
2023-01-28T16:50:51.032Z,42.97
2023-01-28T16:53:39.945Z,37.67
2023-01-28T16:56:35.939Z,42.58
2023-01-28T16:59:16.938Z,33.95
2023-01-28T17:01:56.932Z,36.97
2023-01-28T17:04:30.054Z,46.17
2023-01-28T17:07:16.964Z,43.40
2023-01-28T17:09:50.150Z,36.63
2023-01-28T17:12:36.964Z,40.33
2023-01-28T17:15:17.418Z,40.15
2023-01-28T17:18:10.938Z,35.10
2023-01-28T17:20:57.963Z,42.33
2023-01-28T17:23:31.025Z,39.88
2023-01-28T17:26:20.967Z,39.75
2023-01-28T17:29:03.050Z,38.30
2023-01-28T17:31:49.993Z,41.70
2023-01-28T17:34:23.098Z,43.65
2023-01-28T17:37:09.951Z,42.97
2023-01-28T17:39:49.962Z,39.42
2023-01-28T17:42:43.943Z,39.88
2023-01-28T17:45:31.093Z,40.47
2023-01-28T17:48:04.068Z,33.20
2023-01-28T17:50:50.939Z,37.88
2023-01-28T17:53:24.080Z,40.70
2023-01-28T17:56:10.989Z,39.60
2023-01-28T17:58:44.053Z,39.13
2023-01-28T18:01:32.951Z,47.40
2023-01-28T18:04:07.047Z,42.60
2023-01-28T18:06:55.955Z,46.33
2023-01-28T18:09:35.939Z,37.22
2023-01-28T18:12:22.970Z,48.50
2023-01-28T18:15:02.960Z,39.85
2023-01-28T18:17:56.986Z,48.28
2023-01-28T18:20:43.959Z,45.53
2023-01-28T18:23:17.086Z,40.38
2023-01-28T18:26:05.980Z,37.55
2023-01-28T18:28:39.061Z,39.92
2023-01-28T18:31:26.973Z,36.25
2023-01-28T18:34:00.112Z,38.55
2023-01-28T18:36:46.954Z,40.88
2023-01-28T18:39:21.137Z,40.70
2023-01-28T18:42:07.972Z,34.42
2023-01-28T18:44:41.068Z,35.65
2023-01-28T18:47:27.980Z,40.47
2023-01-28T18:50:07.999Z,45.42
2023-01-28T18:52:54.977Z,45.75
2023-01-28T18:55:28.095Z,41.67
2023-01-28T18:58:14.986Z,40.55
2023-01-28T19:00:48.329Z,38.15
2023-01-28T19:03:35.013Z,34.90
2023-01-28T19:06:22.995Z,33.05
2023-01-28T19:09:19.001Z,44.15
2023-01-28T19:12:12.987Z,38.35
2023-01-28T19:15:06.986Z,38.45
2023-01-28T19:17:53.978Z,32.60
2023-01-28T19:20:27.070Z,32.28
2023-01-28T19:23:21.002Z,34.50
2023-01-28T19:26:18.982Z,38.35
2023-01-28T19:29:06.018Z,32.33
2023-01-28T19:31:46.049Z,32.53
2023-01-28T19:34:40.019Z,34.20
2023-01-28T19:37:27.998Z,33.13
2023-01-28T19:40:01.150Z,34.55
2023-01-28T19:42:48.004Z,29.02
2023-01-28T19:45:28.012Z,37.00
2023-01-28T19:48:14.999Z,40.00
2023-01-28T19:50:48.095Z,32.10
2023-01-28T19:53:34.994Z,33.00
2023-01-28T19:56:21.045Z,36.58
2023-01-28T19:59:15.005Z,29.70
2023-01-28T20:02:09.093Z,30.08
2023-01-28T20:05:00.958Z,29.17
2023-01-28T20:07:41.982Z,33.33
2023-01-28T20:10:29.023Z,35.72
2023-01-28T20:13:02.154Z,38.42
2023-01-28T20:15:49.251Z,32.85
2023-01-28T20:18:22.098Z,35.15
2023-01-28T20:21:12.013Z,35.72
2023-01-28T20:23:52.004Z,35.97
2023-01-28T20:26:48.996Z,37.80
2023-01-28T20:29:36.014Z,36.42
2023-01-28T20:32:16.549Z,33.08
2023-01-28T20:35:06.007Z,27.48
2023-01-28T20:37:40.824Z,33.42
2023-01-28T20:40:27.983Z,35.03
2023-01-28T20:43:01.112Z,33.22
2023-01-28T20:45:47.994Z,39.78
2023-01-28T20:48:28.018Z,38.28
2023-01-28T20:51:27.033Z,38.83
2023-01-28T20:54:14.037Z,40.25
2023-01-28T20:56:54.018Z,41.35
2023-01-28T20:59:48.013Z,42.25
2023-01-28T21:02:35.153Z,35.75
2023-01-28T21:05:12.405Z,33.92
2023-01-28T21:07:59.094Z,39.13
2023-01-28T21:10:39.050Z,40.28
2023-01-28T21:13:26.018Z,39.72
2023-01-28T21:16:01.122Z,45.05
2023-01-28T21:18:48.002Z,39.42
2023-01-28T21:21:31.138Z,41.63
2023-01-28T21:24:25.071Z,44.65
2023-01-28T21:27:19.042Z,45.67
2023-01-28T21:30:13.132Z,42.78
2023-01-28T21:33:07.038Z,44.22
2023-01-28T21:36:01.026Z,48.63
2023-01-28T21:38:48.021Z,49.72
2023-01-28T21:41:21.141Z,48.63
2023-01-28T21:44:08.040Z,38.05
2023-01-28T21:46:41.280Z,43.42
2023-01-28T21:49:28.060Z,44.15
2023-01-28T21:52:01.188Z,49.47
2023-01-28T21:54:48.045Z,47.03
2023-01-28T21:57:28.027Z,55.67
2023-01-28T22:00:16.412Z,46.17
2023-01-28T22:02:57.121Z,64.32
2023-01-28T22:05:44.077Z,47.65
2023-01-28T22:08:24.072Z,57.90
2023-01-28T22:11:18.019Z,52.92
2023-01-28T22:14:05.040Z,64.05
2023-01-28T22:16:45.107Z,49.35
2023-01-28T22:19:32.042Z,59.03
2023-01-28T22:22:05.219Z,51.13
2023-01-28T22:24:52.092Z,48.20
2023-01-28T22:27:26.630Z,46.22
2023-01-28T22:30:16.366Z,42.10
2023-01-28T22:32:50.163Z,50.15
2023-01-28T22:35:37.034Z,42.20
2023-01-28T22:38:10.155Z,43.10
2023-01-28T22:40:57.055Z,48.10
2023-01-28T22:43:30.131Z,34.88
2023-01-28T22:46:18.058Z,42.03
2023-01-28T22:48:52.651Z,38.35
2023-01-28T22:51:42.070Z,34.85
2023-01-28T22:54:24.050Z,38.92
2023-01-28T22:57:18.032Z,35.75
2023-01-28T23:00:12.075Z,31.65
2023-01-28T23:03:07.096Z,31.58
2023-01-28T23:05:54.065Z,35.42
2023-01-28T23:08:27.175Z,36.97
2023-01-28T23:11:22.077Z,38.58
2023-01-28T23:14:20.072Z,34.25
2023-01-28T23:17:32.105Z,30.17
2023-01-28T23:20:44.053Z,34.55
2023-01-28T23:23:56.130Z,34.85
2023-01-28T23:26:43.073Z,34.53
2023-01-28T23:29:16.136Z,29.70
2023-01-28T23:32:10.065Z,28.85
2023-01-28T23:34:46.107Z,27.95
2023-01-28T23:37:33.087Z,31.50
2023-01-28T23:40:06.182Z,38.67
2023-01-28T23:43:00.100Z,24.38
2023-01-28T23:45:40.078Z,29.42
2023-01-28T23:48:27.057Z,32.30
2023-01-28T23:51:03.198Z,38.38
2023-01-28T23:53:50.068Z,29.67
2023-01-28T23:56:24.281Z,29.80
2023-01-28T23:59:11.083Z,32.70
